Time;durP1;ratioP1;P1;durP2;ratioP2;P2;SDS_P1;SDS_P2;PMS_P1;PMS_P2;Temp;Humidity;BMP_temperature;BMP_pressure;BME280_temperature;BME280_humidity;BME280_pressure;Samples;Min_cycle;Max_cycle;Signal;HPM_P1;HPM_P2
2023/08/11 00:01:47;;;;;;;78.33;36.50;;;17.00;99.90;;;;;;6243994;23;20410;-77
2023/08/11 00:04:18;;;;;;;86.80;39.93;;;17.00;99.90;;;;;;6244164;23;20404;-77
2023/08/11 00:06:44;;;;;;;80.27;35.57;;;17.00;99.90;;;;;;6243644;23;20763;-76
2023/08/11 00:09:11;;;;;;;77.90;36.10;;;17.00;99.90;;;;;;6244088;23;20487;-79
2023/08/11 00:11:41;;;;;;;79.87;36.47;;;17.00;99.90;;;;;;6244074;23;20499;-78
2023/08/11 00:14:07;;;;;;;77.77;37.73;;;16.90;99.90;;;;;;6244242;23;20414;-79
2023/08/11 00:16:34;;;;;;;80.17;38.70;;;16.90;99.90;;;;;;6244083;23;20495;-79
2023/08/11 00:19:01;;;;;;;78.07;36.33;;;16.90;99.90;;;;;;6243466;23;20440;-78
2023/08/11 00:21:30;;;;;;;80.63;37.60;;;16.90;99.90;;;;;;6244059;23;20400;-79
2023/08/11 00:23:56;;;;;;;78.77;38.33;;;16.90;99.90;;;;;;6244006;23;20408;-79
2023/08/11 00:26:23;;;;;;;78.37;37.03;;;16.90;99.90;;;;;;6243451;22;20515;-78
2023/08/11 00:28:51;;;;;;;79.30;38.40;;;16.90;99.90;;;;;;6243913;23;20454;-79
2023/08/11 00:31:19;;;;;;;81.00;38.17;;;16.90;99.90;;;;;;6243967;23;20805;-79
2023/08/11 00:33:48;;;;;;;80.27;37.83;;;16.80;99.90;;;;;;6243790;23;20983;-81
2023/08/11 00:36:15;;;;;;;80.77;38.57;;;16.80;99.90;;;;;;6243425;23;20408;-81
2023/08/11 00:38:42;;;;;;;78.57;37.50;;;16.80;99.90;;;;;;6243934;23;20408;-80
2023/08/11 00:41:09;;;;;;;79.57;38.90;;;16.80;99.90;;;;;;6243746;23;20737;-79
2023/08/11 00:43:36;;;;;;;80.93;39.17;;;16.80;99.90;;;;;;6245104;23;20404;-76
2023/08/11 00:46:10;;;;;;;79.33;38.47;;;16.70;99.90;;;;;;6244373;23;20410;-78
2023/08/11 00:48:37;;;;;;;79.87;39.47;;;16.70;99.90;;;;;;6244890;23;20398;-79
2023/08/11 00:51:05;;;;;;;77.30;38.20;;;16.70;99.90;;;;;;6244813;23;20534;-78
2023/08/11 00:53:32;;;;;;;78.90;37.23;;;16.60;99.90;;;;;;6244729;23;20485;-78
2023/08/11 00:56:00;;;;;;;80.73;37.70;;;16.60;99.90;;;;;;6245262;23;20410;-79
2023/08/11 00:58:28;;;;;;;79.37;37.50;;;16.60;99.90;;;;;;6245395;23;20597;-81
2023/08/11 01:00:55;;;;;;;79.37;39.00;;;16.60;99.90;;;;;;6245621;23;20439;-82
2023/08/11 01:03:23;;;;;;;82.90;38.67;;;16.60;99.90;;;;;;6245468;23;20404;-82
2023/08/11 01:06:03;;;;;;;80.93;40.20;;;16.50;99.90;;;;;;6246085;23;20426;-81
2023/08/11 01:08:38;;;;;;;78.60;37.50;;;16.40;99.90;;;;;;6243809;23;20422;-77
2023/08/11 01:11:12;;;;;;;80.27;38.47;;;16.40;99.90;;;;;;6243925;23;20446;-77
2023/08/11 01:13:46;;;;;;;81.30;39.10;;;16.30;99.90;;;;;;6244175;23;20408;-78
2023/08/11 01:16:14;;;;;;;78.10;38.80;;;16.30;99.90;;;;;;6244409;23;20384;-77
2023/08/11 01:18:43;;;;;;;80.27;38.77;;;16.30;99.90;;;;;;6244134;23;20699;-77
2023/08/11 01:21:13;;;;;;;81.03;39.00;;;16.20;99.90;;;;;;6243666;23;20922;-77
2023/08/11 01:23:42;;;;;;;81.57;38.70;;;16.20;99.90;;;;;;6243858;23;20395;-77
2023/08/11 01:26:09;;;;;;;79.07;40.30;;;16.10;99.90;;;;;;6243470;22;20440;-77
2023/08/11 01:28:36;;;;;;;77.50;38.37;;;16.10;99.90;;;;;;6243890;23;20384;-77
2023/08/11 01:31:03;;;;;;;86.50;39.70;;;16.10;99.90;;;;;;6243836;23;20459;-76
2023/08/11 01:33:30;;;;;;;79.17;38.10;;;16.10;99.90;;;;;;6243324;23;20474;-76
2023/08/11 01:35:57;;;;;;;77.83;39.23;;;16.00;99.90;;;;;;6243737;23;20428;-76
2023/08/11 01:38:23;;;;;;;81.37;39.83;;;16.00;99.90;;;;;;6243249;23;20404;-76
2023/08/11 01:40:51;;;;;;;80.17;40.50;;;16.10;99.90;;;;;;6243464;23;20407;-76
2023/08/11 01:43:19;;;;;;;79.73;40.53;;;16.00;99.90;;;;;;6243764;23;20412;-76
2023/08/11 01:45:48;;;;;;;80.07;38.70;;;16.10;99.90;;;;;;6243461;23;20457;-77
2023/08/11 01:48:17;;;;;;;80.67;39.90;;;16.00;99.90;;;;;;6243931;23;20499;-77
2023/08/11 01:50:45;;;;;;;81.00;39.00;;;15.90;99.90;;;;;;6243534;23;20457;-76
2023/08/11 01:53:12;;;;;;;78.47;38.47;;;15.90;99.90;;;;;;6243966;23;20412;-76
2023/08/11 01:55:39;;;;;;;79.87;39.50;;;15.80;99.90;;;;;;6243715;23;20404;-76
2023/08/11 01:58:08;;;;;;;79.17;39.43;;;15.90;99.90;;;;;;6243832;23;20430;-76
2023/08/11 02:00:35;;;;;;;79.47;39.67;;;15.90;99.90;;;;;;6243748;23;20400;-76
2023/08/11 02:03:02;;;;;;;82.27;43.13;;;15.90;99.90;;;;;;6243715;23;20410;-77
2023/08/11 02:05:29;;;;;;;80.00;40.97;;;15.90;99.90;;;;;;6244004;23;20439;-76
2023/08/11 02:07:56;;;;;;;80.40;39.27;;;15.90;99.90;;;;;;6243887;23;20406;-76
2023/08/11 02:10:23;;;;;;;80.87;41.40;;;15.90;99.90;;;;;;6243462;23;20403;-76
2023/08/11 02:12:49;;;;;;;79.70;40.50;;;15.90;99.90;;;;;;6242900;23;20438;-76
2023/08/11 02:15:18;;;;;;;84.50;40.53;;;15.90;99.90;;;;;;6243230;23;20408;-76
2023/08/11 02:17:45;;;;;;;81.33;39.77;;;15.80;99.90;;;;;;6242878;23;20418;-76
2023/08/11 02:20:18;;;;;;;80.63;40.67;;;15.80;99.90;;;;;;6243221;23;20410;-76
2023/08/11 02:22:45;;;;;;;81.13;39.57;;;15.80;99.90;;;;;;6243105;23;21048;-76
2023/08/11 02:25:12;;;;;;;80.53;39.47;;;15.80;99.90;;;;;;6243176;22;20416;-76
2023/08/11 02:27:39;;;;;;;79.07;39.07;;;15.80;99.90;;;;;;6242501;23;20796;-77
2023/08/11 02:30:08;;;;;;;82.60;41.60;;;15.80;99.90;;;;;;6242921;23;20408;-80
2023/08/11 02:32:37;;;;;;;82.07;40.83;;;15.80;99.90;;;;;;6243694;23;20968;-80
2023/08/11 02:35:04;;;;;;;80.77;41.33;;;15.70;99.90;;;;;;6244307;23;20407;-79
2023/08/11 02:37:31;;;;;;;80.30;40.33;;;15.70;99.90;;;;;;6243904;23;20407;-80
2023/08/11 02:39:58;;;;;;;79.57;41.00;;;15.70;99.90;;;;;;6244286;23;20418;-78
2023/08/11 02:42:25;;;;;;;82.50;41.87;;;15.70;99.90;;;;;;6243532;23;20404;-76
2023/08/11 02:44:52;;;;;;;80.00;38.37;;;15.70;99.90;;;;;;6243235;23;20435;-76
2023/08/11 02:47:19;;;;;;;80.87;40.40;;;15.70;99.90;;;;;;6243261;23;20752;-75
2023/08/11 02:49:47;;;;;;;81.07;39.60;;;15.70;99.90;;;;;;6243255;23;20408;-75
2023/08/11 02:52:14;;;;;;;82.47;39.77;;;15.70;99.90;;;;;;6242876;23;20447;-76
2023/08/11 02:54:41;;;;;;;80.77;39.83;;;15.70;99.90;;;;;;6242873;23;20731;-76
2023/08/11 02:57:07;;;;;;;81.70;40.03;;;15.70;99.90;;;;;;6242869;23;20404;-75
2023/08/11 02:59:34;;;;;;;82.67;39.63;;;15.60;99.90;;;;;;6245658;23;20943;-77
2023/08/11 03:02:01;;;;;;;83.10;40.20;;;15.60;99.90;;;;;;6247492;23;20399;-77
2023/08/11 03:04:27;;;;;;;86.67;42.87;;;15.60;99.90;;;;;;6246130;23;20439;-77
2023/08/11 03:06:55;;;;;;;81.53;42.50;;;15.60;99.90;;;;;;6245977;23;20410;-78
2023/08/11 03:09:22;;;;;;;84.20;41.63;;;15.60;99.90;;;;;;6245939;23;20462;-79
2023/08/11 03:11:49;;;;;;;81.30;41.60;;;15.50;99.90;;;;;;6245633;23;20630;-80
2023/08/11 03:14:15;;;;;;;84.43;42.37;;;15.50;99.90;;;;;;6246077;23;20415;-78
2023/08/11 03:16:44;;;;;;;80.37;39.83;;;15.50;99.90;;;;;;6245886;23;20403;-78
2023/08/11 03:19:11;;;;;;;86.00;44.13;;;15.40;99.90;;;;;;6245422;23;20883;-77
2023/08/11 03:21:37;;;;;;;91.50;41.77;;;15.40;99.90;;;;;;6245849;23;20407;-78
2023/08/11 03:24:06;;;;;;;93.17;41.47;;;15.40;99.90;;;;;;6245860;23;20916;-77
2023/08/11 03:26:33;;;;;;;82.87;42.30;;;15.40;99.90;;;;;;6245530;23;20446;-74
2023/08/11 03:29:00;;;;;;;83.90;41.40;;;15.40;99.90;;;;;;6245893;23;20407;-74
2023/08/11 03:31:27;;;;;;;84.57;42.70;;;15.40;99.90;;;;;;6245532;23;20446;-74
2023/08/11 03:33:54;;;;;;;81.60;42.50;;;15.40;99.90;;;;;;6245993;23;20411;-74
2023/08/11 03:36:21;;;;;;;82.77;42.33;;;15.30;99.90;;;;;;6245830;23;20574;-75
2023/08/11 03:38:48;;;;;;;84.03;42.73;;;15.40;99.90;;;;;;6245751;23;20491;-74
2023/08/11 03:41:16;;;;;;;84.33;43.97;;;15.40;99.90;;;;;;6245767;23;20408;-75
2023/08/11 03:43:43;;;;;;;80.53;40.90;;;15.40;99.90;;;;;;6245839;23;20407;-76
2023/08/11 03:46:10;;;;;;;81.87;39.83;;;15.30;99.90;;;;;;6245287;23;20443;-76
2023/08/11 03:48:37;;;;;;;83.70;41.90;;;15.30;99.90;;;;;;6246018;23;20410;-75
2023/08/11 03:51:04;;;;;;;83.30;41.57;;;15.30;99.90;;;;;;6245702;23;20443;-77
2023/08/11 03:53:31;;;;;;;83.30;42.33;;;15.30;99.90;;;;;;6245495;23;20403;-75
2023/08/11 03:55:58;;;;;;;90.20;43.03;;;15.30;99.90;;;;;;6245646;23;20412;-74
2023/08/11 03:58:26;;;;;;;81.30;40.77;;;15.30;99.90;;;;;;6245207;23;20408;-75
2023/08/11 04:00:54;;;;;;;81.07;40.60;;;15.30;99.90;;;;;;6245360;23;20407;-75
2023/08/11 04:03:22;;;;;;;82.93;43.13;;;15.30;99.90;;;;;;6245905;23;20408;-75
2023/08/11 04:05:49;;;;;;;87.20;45.40;;;15.30;99.90;;;;;;6245275;23;20493;-78
2023/08/11 04:08:15;;;;;;;85.40;42.10;;;15.30;99.90;;;;;;6245865;23;20490;-80
2023/08/11 04:10:42;;;;;;;84.93;42.80;;;15.20;99.90;;;;;;6244506;23;20490;-80
2023/08/11 04:13:09;;;;;;;82.97;45.20;;;15.30;99.90;;;;;;6243973;23;20475;-79
2023/08/11 04:15:38;;;;;;;81.87;41.37;;;15.20;99.90;;;;;;6244084;23;20411;-78
2023/08/11 04:18:05;;;;;;;81.80;43.07;;;15.20;99.90;;;;;;6243709;23;20903;-79
2023/08/11 04:20:33;;;;;;;84.43;42.77;;;15.20;99.90;;;;;;6243728;23;20400;-78
2023/08/11 04:23:00;;;;;;;85.40;44.80;;;15.20;99.90;;;;;;6243481;23;20515;-79
2023/08/11 04:25:26;;;;;;;80.30;40.13;;;15.10;99.90;;;;;;6245245;22;20424;-78
2023/08/11 04:27:55;;;;;;;82.90;43.17;;;15.20;99.90;;;;;;6244960;23;20486;-80
2023/08/11 04:30:22;;;;;;;83.47;43.30;;;15.20;99.90;;;;;;6245826;23;20470;-80
2023/08/11 04:32:51;;;;;;;82.03;44.33;;;15.20;99.90;;;;;;6245433;23;20450;-80
2023/08/11 04:35:18;;;;;;;81.57;44.00;;;15.10;99.90;;;;;;6243867;23;20435;-80
2023/08/11 04:37:45;;;;;;;83.97;42.50;;;15.10;99.90;;;;;;6243427;23;20400;-81
2023/08/11 04:40:13;;;;;;;82.67;43.70;;;15.10;99.90;;;;;;6243251;23;20412;-80
2023/08/11 04:42:40;;;;;;;88.27;42.90;;;15.10;99.90;;;;;;6243283;23;20408;-80
2023/08/11 04:45:08;;;;;;;85.40;44.20;;;15.10;99.90;;;;;;6243844;23;20400;-80
2023/08/11 04:47:35;;;;;;;84.97;45.37;;;15.20;99.90;;;;;;6246027;23;20784;-80
2023/08/11 04:50:03;;;;;;;83.17;43.83;;;15.30;99.90;;;;;;6245385;23;20399;-80
2023/08/11 04:52:30;;;;;;;80.00;39.30;;;15.30;99.90;;;;;;6245074;23;20436;-81
2023/08/11 04:54:57;;;;;;;85.70;41.20;;;15.30;99.90;;;;;;6245464;23;20888;-83
2023/08/11 04:57:24;;;;;;;81.63;44.30;;;15.30;99.90;;;;;;6245229;23;21040;-81
2023/08/11 04:59:51;;;;;;;82.97;44.60;;;15.30;99.90;;;;;;6245768;23;20404;-83
2023/08/11 05:02:17;;;;;;;83.50;43.10;;;15.50;99.90;;;;;;6246349;23;20479;-82
2023/08/11 05:04:44;;;;;;;81.60;44.40;;;15.80;99.90;;;;;;6246685;23;20746;-83
2023/08/11 05:07:12;;;;;;;81.80;44.90;;;16.10;99.90;;;;;;6252114;23;20418;-82
2023/08/11 05:09:39;;;;;;;86.10;46.23;;;16.50;99.90;;;;;;6255448;23;20408;-83
2023/08/11 05:12:06;;;;;;;84.07;45.77;;;16.80;99.90;;;;;;6253806;23;20853;-83
2023/08/11 05:14:33;;;;;;;82.67;47.47;;;17.00;99.90;;;;;;6249527;23;20432;-79
2023/08/11 05:17:00;;;;;;;86.37;46.93;;;17.20;99.90;;;;;;6244564;23;20738;-78
2023/08/11 05:19:26;;;;;;;88.97;49.00;;;17.30;99.90;;;;;;6244290;23;20848;-78
2023/08/11 05:21:54;;;;;;;83.10;47.47;;;17.50;99.90;;;;;;6244199;23;20400;-78
2023/08/11 05:24:22;;;;;;;84.50;50.50;;;17.60;99.90;;;;;;6243947;22;20534;-78
2023/08/11 05:26:49;;;;;;;86.70;50.40;;;17.80;99.90;;;;;;6243384;23;20493;-77
2023/08/11 05:29:16;;;;;;;86.60;52.03;;;18.00;99.90;;;;;;6243844;23;20404;-83
2023/08/11 05:31:43;;;;;;;84.10;48.23;;;18.10;99.90;;;;;;6245139;23;20440;-80
2023/08/11 05:34:11;;;;;;;84.53;49.97;;;18.20;99.90;;;;;;6245514;23;20863;-81
2023/08/11 05:36:37;;;;;;;84.57;49.60;;;18.40;99.90;;;;;;6245107;22;20762;-80
2023/08/11 05:39:06;;;;;;;83.50;48.53;;;18.60;99.90;;;;;;6244867;23;20408;-80
2023/08/11 05:41:34;;;;;;;85.50;46.47;;;18.70;99.90;;;;;;6234177;23;20980;-80
2023/08/11 05:44:01;;;;;;;84.20;48.90;;;18.80;99.90;;;;;;6245140;23;20412;-77
2023/08/11 05:46:29;;;;;;;84.97;46.53;;;19.10;99.90;;;;;;6245196;23;20515;-82
2023/08/11 05:48:56;;;;;;;81.40;46.60;;;19.40;99.90;;;;;;6244867;23;20412;-80
2023/08/11 05:51:22;;;;;;;79.67;45.13;;;19.70;99.90;;;;;;6245919;23;20411;-81
2023/08/11 05:53:49;;;;;;;82.83;46.47;;;20.00;99.90;;;;;;6245457;23;20904;-80
2023/08/11 05:56:16;;;;;;;80.57;44.37;;;20.30;99.90;;;;;;6245346;23;20798;-81
2023/08/11 05:58:44;;;;;;;82.73;45.53;;;20.40;99.90;;;;;;6245262;23;20618;-83
2023/08/11 06:01:10;;;;;;;81.43;45.33;;;20.50;99.90;;;;;;6244700;23;20415;-83
2023/08/11 06:03:37;;;;;;;78.93;42.60;;;20.50;99.90;;;;;;6243050;23;20910;-78
2023/08/11 06:06:05;;;;;;;81.67;43.73;;;20.60;99.90;;;;;;6242887;23;20404;-77
2023/08/11 06:08:32;;;;;;;80.67;43.50;;;20.70;99.90;;;;;;6242759;23;20879;-77
2023/08/11 06:10:58;;;;;;;80.20;43.50;;;20.80;99.90;;;;;;6242352;23;20418;-78
2023/08/11 06:13:25;;;;;;;78.17;43.30;;;21.00;99.90;;;;;;6242427;23;20785;-79
2023/08/11 06:15:53;;;;;;;81.13;43.13;;;21.10;99.90;;;;;;6242842;23;20444;-80
2023/08/11 06:18:20;;;;;;;79.13;43.70;;;21.10;99.90;;;;;;6241497;23;20724;-80
2023/08/11 06:20:47;;;;;;;79.50;42.53;;;21.20;99.90;;;;;;6242179;23;20414;-78
2023/08/11 06:23:13;;;;;;;78.10;43.40;;;21.00;99.90;;;;;;6242807;23;20804;-81
2023/08/11 06:25:41;;;;;;;83.27;43.83;;;21.00;99.90;;;;;;6243061;22;20427;-82
2023/08/11 06:28:08;;;;;;;83.10;42.47;;;21.40;99.90;;;;;;6242320;23;20538;-82
2023/08/11 06:30:35;;;;;;;77.97;41.70;;;21.60;99.90;;;;;;6243215;23;20914;-81
2023/08/11 06:33:03;;;;;;;80.47;42.27;;;22.10;99.90;;;;;;6242427;23;20444;-81
2023/08/11 06:35:30;;;;;;;81.17;43.30;;;22.40;99.90;;;;;;6242783;23;20418;-82
2023/08/11 06:37:58;;;;;;;77.60;38.67;;;22.40;99.90;;;;;;6243407;23;20404;-81
2023/08/11 06:40:26;;;;;;;78.70;39.20;;;22.60;99.90;;;;;;6241595;23;20462;-83
2023/08/11 06:42:52;;;;;;;79.90;41.10;;;22.70;99.90;;;;;;6231781;23;20939;-83
2023/08/11 06:45:19;;;;;;;78.97;41.83;;;22.90;99.90;;;;;;6242885;23;20391;-83
2023/08/11 06:47:46;;;;;;;80.13;42.27;;;23.30;99.90;;;;;;6243777;23;20406;-82
2023/08/11 06:50:14;;;;;;;78.77;41.23;;;23.30;99.90;;;;;;6243442;23;20403;-82
2023/08/11 06:52:40;;;;;;;83.20;42.03;;;23.30;99.90;;;;;;6243004;23;20532;-80
2023/08/11 06:55:08;;;;;;;79.00;39.97;;;23.30;99.90;;;;;;6244865;23;20404;-80
2023/08/11 06:57:36;;;;;;;78.20;40.30;;;23.50;99.90;;;;;;6244084;23;20412;-81
2023/08/11 07:00:04;;;;;;;78.57;40.70;;;24.00;99.90;;;;;;6243887;23;20408;-81
2023/08/11 07:02:30;;;;;;;79.47;41.70;;;24.20;99.90;;;;;;6244258;23;20415;-80
2023/08/11 07:04:57;;;;;;;79.20;40.73;;;24.50;99.90;;;;;;6244938;23;20772;-79
2023/08/11 07:07:25;;;;;;;76.93;41.17;;;25.00;98.70;;;;;;6244690;23;20430;-81
2023/08/11 07:09:52;;;;;;;77.60;42.67;;;25.40;97.70;;;;;;6244680;23;20408;-80
2023/08/11 07:12:18;;;;;;;76.97;40.80;;;25.30;97.70;;;;;;6244246;23;20557;-80
2023/08/11 07:14:45;;;;;;;76.53;41.10;;;25.50;97.00;;;;;;6245135;23;20410;-81
2023/08/11 07:17:12;;;;;;;77.03;40.10;;;25.40;96.80;;;;;;6245030;23;20726;-80
2023/08/11 07:19:39;;;;;;;76.10;39.97;;;25.30;97.10;;;;;;6244425;23;20620;-82
2023/08/11 07:22:06;;;;;;;76.40;41.70;;;25.20;97.40;;;;;;6245007;23;20715;-81
2023/08/11 07:24:34;;;;;;;76.00;40.97;;;25.70;96.80;;;;;;6240969;22;20739;-73
2023/08/11 07:27:01;;;;;;;78.87;42.50;;;26.40;95.20;;;;;;6242318;23;20796;-75
2023/08/11 07:29:27;;;;;;;76.17;40.70;;;26.40;94.80;;;;;;6242429;23;20906;-75
2023/08/11 07:31:54;;;;;;;76.70;39.67;;;26.60;95.00;;;;;;6239840;23;20399;-75
2023/08/11 07:34:21;;;;;;;75.40;39.43;;;27.10;93.90;;;;;;6242370;23;20392;-75
2023/08/11 07:36:47;;;;;;;76.00;40.13;;;27.20;93.20;;;;;;6242061;23;20411;-74
2023/08/11 07:39:14;;;;;;;75.10;39.20;;;27.00;93.60;;;;;;6242443;23;20486;-74
2023/08/11 07:41:42;;;;;;;75.20;40.37;;;27.10;93.10;;;;;;6242200;23;20407;-75
2023/08/11 07:44:09;;;;;;;76.67;39.20;;;27.50;93.20;;;;;;6242432;23;20783;-74
2023/08/11 07:46:36;;;;;;;75.40;40.30;;;27.60;92.60;;;;;;6243867;23;20422;-75
2023/08/11 07:49:02;;;;;;;74.67;38.97;;;27.90;92.20;;;;;;6244063;23;20500;-74
2023/08/11 07:51:29;;;;;;;73.97;40.03;;;28.20;91.60;;;;;;6244262;23;20419;-75
2023/08/11 07:53:56;;;;;;;74.20;38.47;;;28.10;90.80;;;;;;6244402;23;20795;-75
2023/08/11 07:56:23;;;;;;;73.80;38.73;;;28.10;91.40;;;;;;6243872;23;20411;-74
2023/08/11 07:58:52;;;;;;;76.17;39.13;;;28.60;90.80;;;;;;6244482;23;20412;-75
2023/08/11 08:01:19;;;;;;;77.70;36.90;;;28.80;90.00;;;;;;6244255;23;20418;-74
2023/08/11 08:03:46;;;;;;;76.93;37.70;;;29.00;90.20;;;;;;6244208;23;20423;-74
2023/08/11 08:06:14;;;;;;;75.00;39.57;;;29.50;87.30;;;;;;6244295;23;20744;-75
2023/08/11 08:08:41;;;;;;;74.53;38.87;;;29.90;86.00;;;;;;6244083;23;20408;-75
2023/08/11 08:11:08;;;;;;;74.90;37.30;;;30.10;84.00;;;;;;6244413;23;20404;-75
2023/08/11 08:13:34;;;;;;;74.50;40.13;;;30.30;84.20;;;;;;6244021;23;20440;-74
2023/08/11 08:16:03;;;;;;;74.93;39.17;;;30.40;83.10;;;;;;6244313;23;20404;-75
2023/08/11 08:18:29;;;;;;;74.00;36.83;;;30.80;82.70;;;;;;6244233;23;20721;-75
2023/08/11 08:20:56;;;;;;;73.20;36.70;;;30.70;80.70;;;;;;6244277;23;20408;-75
2023/08/11 08:23:23;;;;;;;75.07;37.80;;;30.50;81.70;;;;;;6244493;23;20494;-76
2023/08/11 08:25:50;;;;;;;73.30;38.90;;;30.60;80.10;;;;;;6243884;22;20420;-75
2023/08/11 08:28:17;;;;;;;74.93;37.63;;;31.00;78.30;;;;;;6243812;23;20742;-75
2023/08/11 08:30:44;;;;;;;72.33;35.60;;;31.40;78.20;;;;;;6244053;23;20396;-75
2023/08/11 08:33:12;;;;;;;77.27;38.60;;;31.70;75.10;;;;;;6243948;23;20538;-74
2023/08/11 08:35:39;;;;;;;72.13;37.07;;;32.00;72.60;;;;;;6245026;23;20415;-75
2023/08/11 08:38:06;;;;;;;73.23;37.97;;;32.00;71.10;;;;;;6244959;23;20412;-75
2023/08/11 08:40:36;;;;;;;71.07;35.90;;;32.00;71.00;;;;;;6243769;23;20490;-75
2023/08/11 08:43:03;;;;;;;72.50;36.00;;;32.80;70.80;;;;;;6246914;23;20407;-75
2023/08/11 08:45:34;;;;;;;72.67;36.63;;;33.30;69.60;;;;;;6243932;23;20408;-74
2023/08/11 08:48:06;;;;;;;71.20;34.40;;;33.50;67.60;;;;;;6243269;23;20395;-74
2023/08/11 08:50:34;;;;;;;71.60;33.97;;;33.10;65.80;;;;;;6244034;23;20392;-74
2023/08/11 08:53:01;;;;;;;73.57;37.33;;;32.40;68.10;;;;;;6243675;23;20435;-74
2023/08/11 08:55:28;;;;;;;73.23;34.83;;;32.90;67.50;;;;;;6243655;23;20407;-74
2023/08/11 08:57:56;;;;;;;72.47;35.70;;;32.60;66.60;;;;;;6243217;23;20400;-74
2023/08/11 09:00:23;;;;;;;70.77;36.70;;;32.60;68.40;;;;;;6243286;23;20404;-74
2023/08/11 09:02:50;;;;;;;71.47;34.83;;;33.00;67.10;;;;;;6243685;23;20636;-74
2023/08/11 09:05:17;;;;;;;70.77;36.47;;;32.60;68.10;;;;;;6243605;23;20407;-74
2023/08/11 09:07:46;;;;;;;70.87;35.90;;;32.80;67.20;;;;;;6243074;23;20860;-74
2023/08/11 09:10:12;;;;;;;70.87;36.07;;;33.00;66.90;;;;;;6243516;23;20411;-74
2023/08/11 09:12:39;;;;;;;71.40;35.93;;;33.00;66.40;;;;;;6242952;23;20900;-74
2023/08/11 09:15:11;;;;;;;71.63;38.10;;;33.20;66.30;;;;;;6243701;23;20412;-75
2023/08/11 09:17:39;;;;;;;70.37;35.20;;;33.40;65.90;;;;;;6242951;23;20404;-75
2023/08/11 09:20:09;;;;;;;75.43;37.87;;;33.80;64.90;;;;;;6243411;23;20403;-75
2023/08/11 09:22:38;;;;;;;71.87;38.00;;;34.30;63.90;;;;;;6243379;23;20466;-74
2023/08/11 09:25:06;;;;;;;72.23;38.20;;;35.00;61.60;;;;;;6242898;22;20464;-75
2023/08/11 09:27:33;;;;;;;71.00;36.57;;;34.40;61.70;;;;;;6242688;23;21018;-75
2023/08/11 09:30:00;;;;;;;70.97;36.50;;;34.60;62.50;;;;;;6243139;23;20431;-74
2023/08/11 09:32:27;;;;;;;77.60;35.47;;;34.10;61.30;;;;;;6242758;23;20408;-74
2023/08/11 09:34:54;;;;;;;71.57;35.80;;;34.20;61.60;;;;;;6243194;23;20452;-74
2023/08/11 09:37:20;;;;;;;73.20;37.37;;;34.50;60.30;;;;;;6243380;23;20411;-75
2023/08/11 09:39:49;;;;;;;69.20;35.40;;;35.40;59.50;;;;;;6243233;23;20404;-75
2023/08/11 09:42:19;;;;;;;70.93;35.63;;;36.20;57.90;;;;;;6242756;23;20409;-75
2023/08/11 09:44:46;;;;;;;72.30;38.60;;;36.70;55.80;;;;;;6243350;23;20404;-74
2023/08/11 09:47:13;;;;;;;71.50;37.47;;;36.10;56.30;;;;;;6242769;23;20486;-75
2023/08/11 09:49:41;;;;;;;72.40;36.70;;;35.70;57.50;;;;;;6243117;23;20395;-74
2023/08/11 09:52:08;;;;;;;70.63;36.20;;;36.00;56.30;;;;;;6242999;23;20461;-75
2023/08/11 09:54:35;;;;;;;69.50;35.60;;;36.70;55.30;;;;;;6242837;23;20436;-75
2023/08/11 09:57:03;;;;;;;71.17;36.70;;;37.20;54.50;;;;;;6242827;23;20701;-74
2023/08/11 09:59:32;;;;;;;72.77;38.10;;;37.60;53.50;;;;;;6242771;23;20411;-75
2023/08/11 10:02:02;;;;;;;70.20;38.50;;;37.40;52.60;;;;;;6242824;23;20400;-75
2023/08/11 10:04:35;;;;;;;70.87;38.27;;;37.30;52.70;;;;;;6242802;23;20400;-75
2023/08/11 10:07:04;;;;;;;72.67;41.17;;;37.40;52.60;;;;;;6242495;23;21037;-74
2023/08/11 10:09:33;;;;;;;71.20;40.60;;;37.50;52.50;;;;;;6242636;23;20407;-75
2023/08/11 10:12:00;;;;;;;71.73;38.30;;;37.80;51.80;;;;;;6242212;23;20408;-74
2023/08/11 10:14:29;;;;;;;69.73;37.27;;;37.80;51.20;;;;;;6242531;23;20451;-74
2023/08/11 10:16:58;;;;;;;69.57;39.00;;;38.00;51.10;;;;;;6242606;23;20403;-75
2023/08/11 10:19:25;;;;;;;72.37;39.97;;;38.50;50.10;;;;;;6242606;23;20773;-75
2023/08/11 10:21:52;;;;;;;70.97;38.60;;;39.20;49.10;;;;;;6242539;23;20403;-75
2023/08/11 10:24:20;;;;;;;70.57;39.63;;;39.40;48.60;;;;;;6242562;22;20399;-75
2023/08/11 10:26:48;;;;;;;70.70;38.80;;;39.40;48.40;;;;;;6242413;23;20427;-75
2023/08/11 10:29:16;;;;;;;71.27;41.40;;;39.90;48.10;;;;;;6243006;23;20407;-76
2023/08/11 10:31:54;;;;;;;75.67;42.60;;;39.00;48.10;;;;;;6242926;23;20411;-74
2023/08/11 10:34:24;;;;;;;71.60;40.93;;;39.20;48.70;;;;;;6242314;23;21001;-74
2023/08/11 10:36:53;;;;;;;71.23;40.33;;;40.10;46.90;;;;;;6242935;23;20407;-74
2023/08/11 10:39:21;;;;;;;71.43;39.90;;;40.00;46.70;;;;;;6242762;23;20407;-75
2023/08/11 10:41:49;;;;;;;70.83;40.53;;;40.40;45.90;;;;;;6242654;23;20407;-75
2023/08/11 10:44:18;;;;;;;70.60;39.20;;;40.70;45.20;;;;;;6242278;23;20907;-75
2023/08/11 10:46:46;;;;;;;71.97;42.17;;;40.50;46.00;;;;;;6242432;23;20399;-76
2023/08/11 10:49:30;;;;;;;70.93;40.40;;;41.00;44.80;;;;;;6242552;23;20411;-75
2023/08/11 10:52:00;;;;;;;73.53;42.47;;;40.70;45.40;;;;;;6242656;23;20388;-76
2023/08/11 10:54:27;;;;;;;70.60;42.23;;;41.60;44.20;;;;;;6242881;23;20442;-76
2023/08/11 10:56:54;;;;;;;70.67;41.50;;;42.00;42.40;;;;;;6242416;23;20407;-76
2023/08/11 10:59:25;;;;;;;74.17;41.80;;;42.80;41.30;;;;;;6242402;23;20172;-75
2023/08/11 11:01:53;;;;;;;71.37;39.80;;;42.00;41.90;;;;;;6242369;23;20392;-75
2023/08/11 11:04:21;;;;;;;71.47;42.37;;;40.50;43.70;;;;;;6242674;23;20522;-75
2023/08/11 11:06:50;;;;;;;73.53;40.20;;;39.70;44.80;;;;;;6242793;23;20416;-75
2023/08/11 11:09:19;;;;;;;72.90;37.60;;;39.10;45.80;;;;;;6242750;23;20399;-75
2023/08/11 11:11:47;;;;;;;72.90;39.73;;;40.20;44.70;;;;;;6242198;23;20411;-76
2023/08/11 11:14:14;;;;;;;72.57;42.03;;;39.70;44.60;;;;;;6242277;23;20447;-75
2023/08/11 11:16:43;;;;;;;71.27;40.60;;;39.60;44.00;;;;;;6241959;23;20404;-75
2023/08/11 11:19:10;;;;;;;73.87;43.13;;;39.90;45.60;;;;;;6242308;23;20422;-75
2023/08/11 11:21:40;;;;;;;71.90;40.30;;;39.90;45.10;;;;;;6243889;23;20399;-75
2023/08/11 11:24:07;;;;;;;70.93;41.80;;;40.30;43.90;;;;;;6244487;23;20403;-74
2023/08/11 11:26:36;;;;;;;70.77;41.90;;;40.00;44.20;;;;;;6243730;23;20964;-74
2023/08/11 11:29:04;;;;;;;72.27;42.10;;;39.60;45.00;;;;;;6244291;23;20403;-75
2023/08/11 11:31:33;;;;;;;73.17;42.90;;;39.90;44.40;;;;;;6244158;23;20442;-75
2023/08/11 11:34:00;;;;;;;73.17;41.77;;;39.10;45.30;;;;;;6244324;23;20465;-75
2023/08/11 11:36:27;;;;;;;70.97;39.60;;;38.40;46.30;;;;;;6244327;23;20404;-74
2023/08/11 11:38:55;;;;;;;73.90;40.67;;;38.10;47.20;;;;;;6244804;23;20488;-75
2023/08/11 11:41:21;;;;;;;71.83;41.00;;;38.30;47.40;;;;;;6244064;23;20724;-75
2023/08/11 11:43:51;;;;;;;73.17;41.57;;;39.00;47.00;;;;;;6243806;23;20395;-75
2023/08/11 11:46:19;;;;;;;72.00;40.77;;;39.60;46.40;;;;;;6243847;23;20413;-75
2023/08/11 11:48:47;;;;;;;72.70;39.70;;;39.00;45.70;;;;;;6244145;23;20425;-75
2023/08/11 11:51:16;;;;;;;71.30;41.10;;;38.70;47.40;;;;;;6244078;23;20607;-75
2023/08/11 11:53:44;;;;;;;74.33;39.63;;;38.50;47.50;;;;;;6243967;23;20962;-74
2023/08/11 11:56:14;;;;;;;71.93;40.10;;;38.20;47.90;;;;;;6244126;23;20407;-75
2023/08/11 11:58:40;;;;;;;72.20;40.97;;;38.30;47.30;;;;;;6246268;23;20411;-75
2023/08/11 12:01:12;;;;;;;71.93;41.07;;;38.70;47.30;;;;;;6245368;23;20407;-75
2023/08/11 12:03:40;;;;;;;71.13;41.43;;;38.90;46.40;;;;;;6244302;23;20420;-75
2023/08/11 12:06:08;;;;;;;71.30;41.30;;;38.60;46.40;;;;;;6244454;23;20403;-75
2023/08/11 12:08:37;;;;;;;71.70;38.60;;;38.50;47.40;;;;;;6244269;23;20435;-76
2023/08/11 12:11:04;;;;;;;71.73;39.20;;;38.30;47.00;;;;;;6244115;23;20408;-76
2023/08/11 12:13:32;;;;;;;70.47;40.33;;;38.20;47.20;;;;;;6244689;23;20462;-75
2023/08/11 12:15:58;;;;;;;71.67;40.27;;;38.80;46.80;;;;;;6244731;23;20686;-75
2023/08/11 12:18:28;;;;;;;73.60;42.33;;;39.10;46.60;;;;;;6244511;23;20403;-74
2023/08/11 12:20:58;;;;;;;74.17;43.63;;;39.00;47.00;;;;;;6244224;23;20494;-76
2023/08/11 12:23:25;;;;;;;71.40;41.47;;;39.00;46.40;;;;;;6244030;23;20838;-75
2023/08/11 12:25:52;;;;;;;71.47;40.27;;;38.40;46.50;;;;;;6243366;22;20420;-76
2023/08/11 12:28:19;;;;;;;72.20;42.63;;;38.60;47.70;;;;;;6243728;23;20929;-76
2023/08/11 12:30:48;;;;;;;72.47;43.03;;;38.60;46.10;;;;;;6244077;23;20404;-76